Flight Track Log - Related Links

Times and Time Zones

All times are in EDT time to prevent confusion due to time zone crossing. See the SWA2612 flight status page for this flight to view local times or setup timezone preferences in your user account.

Time Position Orientation Groundspeed Altitude Reporting Facility
EDT Latitude Longitude Course Direction KTS MPH feet Rate Location/Type
Wed 11:19:52 PM 33.9947 -117.5853 148° Southeast 215 247 5,700  Level Los Angeles Center
Wed 11:20:54 PM 33.9314 -117.5394 149° Southeast 247 284 8,700 2,390 Climbing Los Angeles Center
Wed 11:21:55 PM 33.8767 -117.4950 146° Southeast 282 325 10,600 2,927 Climbing Los Angeles Center
Wed 11:22:57 PM 33.7864 -117.4194 145° Southeast 327 376 14,700 4,161 Climbing Los Angeles Center
Wed 11:23:59 PM 33.7258 -117.3044 122° Southeast 360 414 19,200 3,805 Climbing Los Angeles Center
Wed 11:25:00 PM 33.7158 -117.1750 95° East 386 444 22,500 2,878 Climbing Los Angeles Center
Wed 11:26:02 PM 33.7058 -117.0397 95° East 401 461 25,100 2,537 Climbing Los Angeles Center
Wed 11:27:03 PM 33.6931 -116.9006 96° East 415 478 27,700 2,732 Climbing Los Angeles Center
Wed 11:28:05 PM 33.6794 -116.7389 96° East 438 504 30,700 2,585 Climbing Los Angeles Center
Wed 11:29:06 PM 33.6667 -116.5906 96° East 444 511 33,000 1,022 Climbing Los Angeles Center
Wed 11:30:20 PM 33.6544 -116.4436 96° East 443 510 33,000  Level Los Angeles Center
Wed 11:31:22 PM 33.6381 -116.2692 96° East 439 505 33,000  Level Los Angeles Center
Wed 11:32:24 PM 33.6267 -116.1214 95° East 442 509 33,000  Level Los Angeles Center
Wed 11:33:25 PM 33.6247 -115.9753 91° East 437 503 33,000  Level Los Angeles Center
Wed 11:34:27 PM 33.6211 -115.8294 92° East 435 501 33,000  Level Los Angeles Center
Wed 11:35:28 PM 33.6175 -115.6842 92° East 437 503 33,000  Level Los Angeles Center
Wed 11:36:30 PM 33.6053 -115.5675 97° East 438 504 33,000  Level Los Angeles Center
Wed 11:37:32 PM 33.5875 -115.3653 96° East 435 501 33,000  Level Los Angeles Center
Wed 11:38:33 PM 33.5736 -115.2217 97° East 434 499 33,000  Level Los Angeles Center
Wed 11:39:35 PM 33.5597 -115.0769 97° East 436 502 33,000  Level Los Angeles Center
Wed 11:40:37 PM 33.5458 -114.9328 97° East 437 503 33,000  Level Los Angeles Center
Wed 11:41:38 PM 33.5322 -114.7878 96° East 438 504 33,000  Level Los Angeles Center
Wed 11:42:40 PM 33.5183 -114.6456 97° East 433 498 33,000 -49 Level Los Angeles Center
Wed 11:43:41 PM 33.5039 -114.5025 97° East 436 502 32,900 -1,220 Descending Los Angeles Center
Wed 11:44:43 PM 33.4897 -114.3614 97° East 428 493 30,500 -2,855 Descending Los Angeles Center
Wed 11:45:45 PM 33.4717 -114.1900 97° East 434 499 27,000 -2,683 Descending Los Angeles Center
Wed 11:46:46 PM 33.4542 -114.0489 98° East 432 497 25,000 -976 Descending Los Angeles Center
Wed 11:47:48 PM 33.4275 -113.9133 103° East 419 482 25,000  Level Los Angeles Center
Wed 11:48:50 PM 33.3981 -113.7778 105° East 419 482 25,000  Level Los Angeles Center
Wed 11:49:51 PM 33.3714 -113.6406 103° East 423 487 25,000 -1,317 Level Los Angeles Center
Wed 11:50:53 PM 33.3425 -113.4892 103° East 419 482 22,300 -1,548 Descending Los Angeles Center
Wed 11:51:55 PM 33.3158 -113.3600 104° East 406 467 21,800 -1,366 Descending Los Angeles Center
Wed 11:52:56 PM 33.2906 -113.2353 104° East 393 452 19,500 -2,195 Descending Los Angeles Center
Wed 11:53:58 PM 33.2742 -113.1128 99° East 394 453 17,300 -1,304 Descending Los Angeles Center
Wed 11:54:51 PM 33.2833 -113.0000 84° East 365 420 17,000 -254 Descending Phoenix TRACON
Wed 11:55:09 PM 33.2769 -112.9678 103° East 364 419 17,000 -684 Level Albuquerque Center
Wed 11:56:10 PM 33.2800 -112.8528 88° East 352 405 16,100 -885 Descending Albuquerque Center

Login

Don't have an account? Register now (free) for customized features, flight alerts, and more!